sensor_id;sensor_type;location;lat;lon;timestamp;P1;durP1;ratioP1;P2;durP2;ratioP2
15958;SDS011;8078;47.822;9.402;2023-11-21T00:00:40;8.07;;;2.60;;
15958;SDS011;8078;47.822;9.402;2023-11-21T00:03:05;5.43;;;2.73;;
15958;SDS011;8078;47.822;9.402;2023-11-21T00:05:31;8.07;;;3.07;;
15958;SDS011;8078;47.822;9.402;2023-11-21T00:07:57;12.33;;;3.30;;
15958;SDS011;8078;47.822;9.402;2023-11-21T00:10:23;8.30;;;2.87;;
15958;SDS011;8078;47.822;9.402;2023-11-21T00:12:48;9.97;;;2.67;;
15958;SDS011;8078;47.822;9.402;2023-11-21T00:15:14;6.87;;;3.00;;
15958;SDS011;8078;47.822;9.402;2023-11-21T00:17:40;10.13;;;3.47;;
15958;SDS011;8078;47.822;9.402;2023-11-21T00:20:06;6.43;;;3.27;;
15958;SDS011;8078;47.822;9.402;2023-11-21T00:22:33;10.20;;;3.10;;
15958;SDS011;8078;47.822;9.402;2023-11-21T00:24:59;9.13;;;3.27;;
15958;SDS011;8078;47.822;9.402;2023-11-21T00:27:25;8.03;;;3.20;;
15958;SDS011;8078;47.822;9.402;2023-11-21T00:29:51;8.43;;;3.50;;
15958;SDS011;8078;47.822;9.402;2023-11-21T00:32:16;6.80;;;3.07;;
15958;SDS011;8078;47.822;9.402;2023-11-21T00:34:42;7.47;;;2.90;;
15958;SDS011;8078;47.822;9.402;2023-11-21T00:37:07;5.97;;;2.93;;
15958;SDS011;8078;47.822;9.402;2023-11-21T00:39:33;5.67;;;2.53;;
15958;SDS011;8078;47.822;9.402;2023-11-21T00:42:00;6.83;;;2.57;;
15958;SDS011;8078;47.822;9.402;2023-11-21T00:44:26;9.10;;;3.23;;
15958;SDS011;8078;47.822;9.402;2023-11-21T00:46:51;4.87;;;3.03;;
15958;SDS011;8078;47.822;9.402;2023-11-21T00:49:17;10.43;;;2.90;;
15958;SDS011;8078;47.822;9.402;2023-11-21T00:51:42;11.77;;;2.63;;
15958;SDS011;8078;47.822;9.402;2023-11-21T00:54:08;9.77;;;2.60;;
15958;SDS011;8078;47.822;9.402;2023-11-21T00:56:33;7.20;;;2.43;;
15958;SDS011;8078;47.822;9.402;2023-11-21T00:58:59;6.27;;;2.93;;
15958;SDS011;8078;47.822;9.402;2023-11-21T01:01:24;7.97;;;2.90;;
15958;SDS011;8078;47.822;9.402;2023-11-21T01:03:50;15.73;;;3.33;;
15958;SDS011;8078;47.822;9.402;2023-11-21T01:06:16;8.07;;;3.80;;
15958;SDS011;8078;47.822;9.402;2023-11-21T01:08:43;11.33;;;3.30;;
15958;SDS011;8078;47.822;9.402;2023-11-21T01:11:09;8.37;;;3.40;;
15958;SDS011;8078;47.822;9.402;2023-11-21T01:13:37;12.93;;;3.43;;
15958;SDS011;8078;47.822;9.402;2023-11-21T01:16:04;7.67;;;3.43;;
15958;SDS011;8078;47.822;9.402;2023-11-21T01:18:31;10.77;;;4.13;;
15958;SDS011;8078;47.822;9.402;2023-11-21T01:20:57;7.73;;;3.83;;
15958;SDS011;8078;47.822;9.402;2023-11-21T01:23:22;15.63;;;4.37;;
15958;SDS011;8078;47.822;9.402;2023-11-21T01:25:48;5.70;;;3.30;;
15958;SDS011;8078;47.822;9.402;2023-11-21T01:28:13;10.13;;;3.47;;
15958;SDS011;8078;47.822;9.402;2023-11-21T01:30:39;8.63;;;3.47;;
15958;SDS011;8078;47.822;9.402;2023-11-21T01:33:05;13.13;;;3.47;;
15958;SDS011;8078;47.822;9.402;2023-11-21T01:35:30;10.10;;;3.53;;
15958;SDS011;8078;47.822;9.402;2023-11-21T01:37:56;11.07;;;3.57;;
15958;SDS011;8078;47.822;9.402;2023-11-21T01:40:21;8.73;;;3.10;;
15958;SDS011;8078;47.822;9.402;2023-11-21T01:42:47;7.97;;;3.07;;
15958;SDS011;8078;47.822;9.402;2023-11-21T01:45:13;8.03;;;2.87;;
15958;SDS011;8078;47.822;9.402;2023-11-21T01:47:39;9.67;;;3.53;;
15958;SDS011;8078;47.822;9.402;2023-11-21T01:50:07;10.40;;;3.10;;
15958;SDS011;8078;47.822;9.402;2023-11-21T01:52:36;8.97;;;3.37;;
15958;SDS011;8078;47.822;9.402;2023-11-21T01:55:04;9.93;;;3.30;;
15958;SDS011;8078;47.822;9.402;2023-11-21T01:57:31;14.03;;;3.50;;
15958;SDS011;8078;47.822;9.402;2023-11-21T01:59:57;9.77;;;3.60;;
15958;SDS011;8078;47.822;9.402;2023-11-21T02:02:26;7.53;;;3.33;;
15958;SDS011;8078;47.822;9.402;2023-11-21T02:04:51;9.67;;;3.80;;
15958;SDS011;8078;47.822;9.402;2023-11-21T02:07:17;11.30;;;3.87;;
15958;SDS011;8078;47.822;9.402;2023-11-21T02:09:44;8.43;;;3.80;;
15958;SDS011;8078;47.822;9.402;2023-11-21T02:12:10;14.80;;;3.43;;
15958;SDS011;8078;47.822;9.402;2023-11-21T02:14:36;7.33;;;3.00;;
15958;SDS011;8078;47.822;9.402;2023-11-21T02:17:02;6.90;;;3.67;;
15958;SDS011;8078;47.822;9.402;2023-11-21T02:19:28;8.53;;;3.67;;
15958;SDS011;8078;47.822;9.402;2023-11-21T02:21:56;9.87;;;3.43;;
15958;SDS011;8078;47.822;9.402;2023-11-21T02:24:29;14.53;;;3.43;;
15958;SDS011;8078;47.822;9.402;2023-11-21T02:26:56;8.07;;;2.87;;
15958;SDS011;8078;47.822;9.402;2023-11-21T02:29:21;9.60;;;3.37;;
15958;SDS011;8078;47.822;9.402;2023-11-21T02:31:52;10.83;;;3.10;;
15958;SDS011;8078;47.822;9.402;2023-11-21T02:34:19;8.60;;;3.37;;
15958;SDS011;8078;47.822;9.402;2023-11-21T02:36:46;10.67;;;3.23;;
15958;SDS011;8078;47.822;9.402;2023-11-21T02:39:14;7.17;;;2.77;;
15958;SDS011;8078;47.822;9.402;2023-11-21T02:41:41;11.03;;;3.33;;
15958;SDS011;8078;47.822;9.402;2023-11-21T02:44:07;12.27;;;3.40;;
15958;SDS011;8078;47.822;9.402;2023-11-21T02:46:33;4.63;;;3.37;;
15958;SDS011;8078;47.822;9.402;2023-11-21T02:49:00;22.70;;;4.87;;
15958;SDS011;8078;47.822;9.402;2023-11-21T02:51:26;32.00;;;5.87;;
15958;SDS011;8078;47.822;9.402;2023-11-21T02:53:52;6.70;;;2.73;;
15958;SDS011;8078;47.822;9.402;2023-11-21T02:56:17;6.87;;;3.10;;
15958;SDS011;8078;47.822;9.402;2023-11-21T02:58:43;5.87;;;3.50;;
15958;SDS011;8078;47.822;9.402;2023-11-21T03:01:09;11.17;;;4.37;;
15958;SDS011;8078;47.822;9.402;2023-11-21T03:03:36;9.93;;;4.13;;
15958;SDS011;8078;47.822;9.402;2023-11-21T03:06:05;8.40;;;3.80;;
15958;SDS011;8078;47.822;9.402;2023-11-21T03:08:31;10.30;;;4.13;;
15958;SDS011;8078;47.822;9.402;2023-11-21T03:10:57;11.97;;;3.73;;
15958;SDS011;8078;47.822;9.402;2023-11-21T03:13:23;8.57;;;3.97;;
15958;SDS011;8078;47.822;9.402;2023-11-21T03:15:48;7.20;;;3.80;;
15958;SDS011;8078;47.822;9.402;2023-11-21T03:18:14;58.37;;;7.73;;
15958;SDS011;8078;47.822;9.402;2023-11-21T03:20:40;5.63;;;3.30;;
15958;SDS011;8078;47.822;9.402;2023-11-21T03:23:06;4.17;;;2.30;;
15958;SDS011;8078;47.822;9.402;2023-11-21T03:25:32;3.33;;;2.23;;
15958;SDS011;8078;47.822;9.402;2023-11-21T03:27:57;4.67;;;2.13;;
15958;SDS011;8078;47.822;9.402;2023-11-21T03:30:23;2.27;;;1.80;;
15958;SDS011;8078;47.822;9.402;2023-11-21T03:32:48;4.60;;;1.60;;
15958;SDS011;8078;47.822;9.402;2023-11-21T03:35:14;3.77;;;1.60;;
15958;SDS011;8078;47.822;9.402;2023-11-21T03:37:39;4.93;;;1.90;;
15958;SDS011;8078;47.822;9.402;2023-11-21T03:40:07;3.27;;;1.90;;
15958;SDS011;8078;47.822;9.402;2023-11-21T03:42:37;6.30;;;2.00;;
15958;SDS011;8078;47.822;9.402;2023-11-21T03:45:03;2.63;;;2.23;;
15958;SDS011;8078;47.822;9.402;2023-11-21T03:47:29;4.60;;;2.20;;
15958;SDS011;8078;47.822;9.402;2023-11-21T03:49:55;3.40;;;2.10;;
15958;SDS011;8078;47.822;9.402;2023-11-21T03:52:20;3.90;;;2.10;;
15958;SDS011;8078;47.822;9.402;2023-11-21T03:54:46;4.27;;;2.60;;
15958;SDS011;8078;47.822;9.402;2023-11-21T03:57:12;5.30;;;3.20;;
15958;SDS011;8078;47.822;9.402;2023-11-21T03:59:39;5.00;;;2.53;;
15958;SDS011;8078;47.822;9.402;2023-11-21T04:02:06;7.27;;;3.37;;
15958;SDS011;8078;47.822;9.402;2023-11-21T04:04:32;8.37;;;3.33;;
15958;SDS011;8078;47.822;9.402;2023-11-21T04:06:58;6.60;;;3.43;;
15958;SDS011;8078;47.822;9.402;2023-11-21T04:09:24;8.73;;;4.00;;
15958;SDS011;8078;47.822;9.402;2023-11-21T04:11:50;5.83;;;4.00;;
15958;SDS011;8078;47.822;9.402;2023-11-21T04:14:16;9.27;;;4.83;;
15958;SDS011;8078;47.822;9.402;2023-11-21T04:16:42;11.90;;;4.10;;
15958;SDS011;8078;47.822;9.402;2023-11-21T04:19:08;9.80;;;4.50;;
15958;SDS011;8078;47.822;9.402;2023-11-21T04:21:39;453.87;;;30.87;;
15958;SDS011;8078;47.822;9.402;2023-11-21T04:24:05;448.20;;;28.83;;
15958;SDS011;8078;47.822;9.402;2023-11-21T04:26:31;295.03;;;17.83;;
15958;SDS011;8078;47.822;9.402;2023-11-21T04:28:57;34.47;;;6.60;;
15958;SDS011;8078;47.822;9.402;2023-11-21T04:31:23;108.53;;;10.40;;
15958;SDS011;8078;47.822;9.402;2023-11-21T04:33:48;131.43;;;13.73;;
15958;SDS011;8078;47.822;9.402;2023-11-21T04:36:14;83.87;;;9.03;;
15958;SDS011;8078;47.822;9.402;2023-11-21T04:38:39;217.47;;;16.33;;
15958;SDS011;8078;47.822;9.402;2023-11-21T04:41:05;50.33;;;8.27;;
15958;SDS011;8078;47.822;9.402;2023-11-21T04:43:31;8.63;;;4.83;;
15958;SDS011;8078;47.822;9.402;2023-11-21T04:45:57;14.60;;;5.37;;
15958;SDS011;8078;47.822;9.402;2023-11-21T04:48:22;192.73;;;14.97;;
15958;SDS011;8078;47.822;9.402;2023-11-21T04:50:48;123.73;;;11.87;;
15958;SDS011;8078;47.822;9.402;2023-11-21T04:53:14;156.93;;;13.00;;
15958;SDS011;8078;47.822;9.402;2023-11-21T04:55:40;442.57;;;30.80;;
15958;SDS011;8078;47.822;9.402;2023-11-21T04:58:06;334.43;;;19.73;;
15958;SDS011;8078;47.822;9.402;2023-11-21T05:00:34;306.47;;;17.93;;
15958;SDS011;8078;47.822;9.402;2023-11-21T05:03:01;386.27;;;22.13;;
15958;SDS011;8078;47.822;9.402;2023-11-21T05:05:27;330.03;;;19.87;;
15958;SDS011;8078;47.822;9.402;2023-11-21T05:07:53;287.93;;;17.93;;
15958;SDS011;8078;47.822;9.402;2023-11-21T05:10:19;317.17;;;17.90;;
15958;SDS011;8078;47.822;9.402;2023-11-21T05:12:44;257.57;;;18.60;;
15958;SDS011;8078;47.822;9.402;2023-11-21T05:15:13;29.40;;;5.73;;
15958;SDS011;8078;47.822;9.402;2023-11-21T05:17:40;11.03;;;5.47;;
15958;SDS011;8078;47.822;9.402;2023-11-21T05:20:14;252.37;;;16.37;;
15958;SDS011;8078;47.822;9.402;2023-11-21T05:22:47;10.20;;;5.07;;
15958;SDS011;8078;47.822;9.402;2023-11-21T05:25:15;13.77;;;5.97;;
15958;SDS011;8078;47.822;9.402;2023-11-21T05:27:45;14.90;;;6.03;;
15958;SDS011;8078;47.822;9.402;2023-11-21T05:30:11;14.73;;;6.80;;
15958;SDS011;8078;47.822;9.402;2023-11-21T05:32:37;12.50;;;6.57;;
15958;SDS011;8078;47.822;9.402;2023-11-21T05:35:04;15.57;;;6.30;;
15958;SDS011;8078;47.822;9.402;2023-11-21T05:37:34;12.07;;;7.13;;
15958;SDS011;8078;47.822;9.402;2023-11-21T05:40:01;13.17;;;7.13;;
15958;SDS011;8078;47.822;9.402;2023-11-21T05:42:31;15.23;;;7.57;;
15958;SDS011;8078;47.822;9.402;2023-11-21T05:44:57;13.77;;;6.37;;
15958;SDS011;8078;47.822;9.402;2023-11-21T05:47:24;10.53;;;6.07;;
15958;SDS011;8078;47.822;9.402;2023-11-21T05:49:51;21.90;;;6.83;;
15958;SDS011;8078;47.822;9.402;2023-11-21T05:52:17;14.73;;;6.83;;
15958;SDS011;8078;47.822;9.402;2023-11-21T05:54:43;12.40;;;6.30;;
15958;SDS011;8078;47.822;9.402;2023-11-21T05:57:08;15.20;;;6.00;;
15958;SDS011;8078;47.822;9.402;2023-11-21T05:59:34;18.77;;;6.33;;
15958;SDS011;8078;47.822;9.402;2023-11-21T06:01:59;13.47;;;5.97;;
15958;SDS011;8078;47.822;9.402;2023-11-21T06:04:25;47.37;;;7.53;;
15958;SDS011;8078;47.822;9.402;2023-11-21T06:06:51;295.87;;;20.40;;
15958;SDS011;8078;47.822;9.402;2023-11-21T06:09:17;58.77;;;8.33;;
15958;SDS011;8078;47.822;9.402;2023-11-21T06:11:43;30.20;;;7.60;;
15958;SDS011;8078;47.822;9.402;2023-11-21T06:14:09;78.97;;;9.70;;
15958;SDS011;8078;47.822;9.402;2023-11-21T06:16:35;318.37;;;19.03;;
15958;SDS011;8078;47.822;9.402;2023-11-21T06:19:01;516.43;;;35.80;;
15958;SDS011;8078;47.822;9.402;2023-11-21T06:21:27;173.73;;;16.13;;
15958;SDS011;8078;47.822;9.402;2023-11-21T06:23:52;278.80;;;19.57;;
15958;SDS011;8078;47.822;9.402;2023-11-21T06:26:18;58.27;;;10.47;;
15958;SDS011;8078;47.822;9.402;2023-11-21T06:28:44;226.67;;;18.27;;
15958;SDS011;8078;47.822;9.402;2023-11-21T06:31:10;440.80;;;29.20;;
15958;SDS011;8078;47.822;9.402;2023-11-21T06:33:35;268.43;;;19.27;;
15958;SDS011;8078;47.822;9.402;2023-11-21T06:36:01;410.33;;;27.47;;
15958;SDS011;8078;47.822;9.402;2023-11-21T06:38:31;60.10;;;8.33;;
15958;SDS011;8078;47.822;9.402;2023-11-21T06:40:57;68.97;;;9.17;;
15958;SDS011;8078;47.822;9.402;2023-11-21T06:43:23;299.83;;;17.27;;
15958;SDS011;8078;47.822;9.402;2023-11-21T06:45:49;479.77;;;27.87;;
15958;SDS011;8078;47.822;9.402;2023-11-21T06:48:14;267.27;;;17.07;;
15958;SDS011;8078;47.822;9.402;2023-11-21T06:50:40;494.83;;;31.13;;
15958;SDS011;8078;47.822;9.402;2023-11-21T06:53:06;501.70;;;33.33;;
15958;SDS011;8078;47.822;9.402;2023-11-21T06:55:33;616.70;;;38.67;;
15958;SDS011;8078;47.822;9.402;2023-11-21T06:57:59;622.70;;;42.47;;
15958;SDS011;8078;47.822;9.402;2023-11-21T07:00:25;699.03;;;51.77;;
15958;SDS011;8078;47.822;9.402;2023-11-21T07:02:52;552.57;;;32.90;;
15958;SDS011;8078;47.822;9.402;2023-11-21T07:05:19;632.30;;;49.93;;
15958;SDS011;8078;47.822;9.402;2023-11-21T07:07:46;717.93;;;49.10;;
15958;SDS011;8078;47.822;9.402;2023-11-21T07:10:13;724.70;;;45.03;;
15958;SDS011;8078;47.822;9.402;2023-11-21T07:12:39;664.30;;;38.73;;
15958;SDS011;8078;47.822;9.402;2023-11-21T07:15:05;555.27;;;32.67;;
15958;SDS011;8078;47.822;9.402;2023-11-21T07:17:34;621.20;;;41.10;;
15958;SDS011;8078;47.822;9.402;2023-11-21T07:20:00;775.67;;;46.97;;
15958;SDS011;8078;47.822;9.402;2023-11-21T07:22:29;599.23;;;31.27;;
15958;SDS011;8078;47.822;9.402;2023-11-21T07:24:55;698.47;;;37.17;;
15958;SDS011;8078;47.822;9.402;2023-11-21T07:27:21;543.13;;;29.90;;
15958;SDS011;8078;47.822;9.402;2023-11-21T07:29:47;628.03;;;40.97;;
15958;SDS011;8078;47.822;9.402;2023-11-21T07:32:13;520.60;;;29.90;;
15958;SDS011;8078;47.822;9.402;2023-11-21T07:34:39;606.53;;;36.60;;
15958;SDS011;8078;47.822;9.402;2023-11-21T07:37:06;572.03;;;38.60;;
15958;SDS011;8078;47.822;9.402;2023-11-21T07:39:32;578.43;;;28.63;;
15958;SDS011;8078;47.822;9.402;2023-11-21T07:41:57;515.77;;;32.80;;
15958;SDS011;8078;47.822;9.402;2023-11-21T07:44:23;459.03;;;22.50;;
15958;SDS011;8078;47.822;9.402;2023-11-21T07:46:48;427.70;;;23.10;;
15958;SDS011;8078;47.822;9.402;2023-11-21T07:49:17;536.70;;;38.57;;
15958;SDS011;8078;47.822;9.402;2023-11-21T07:51:45;495.67;;;27.33;;
15958;SDS011;8078;47.822;9.402;2023-11-21T07:54:11;593.23;;;32.80;;
15958;SDS011;8078;47.822;9.402;2023-11-21T07:56:36;487.20;;;25.53;;
15958;SDS011;8078;47.822;9.402;2023-11-21T07:59:02;509.63;;;38.63;;
15958;SDS011;8078;47.822;9.402;2023-11-21T08:01:28;489.10;;;22.77;;
15958;SDS011;8078;47.822;9.402;2023-11-21T08:03:54;510.33;;;25.93;;
15958;SDS011;8078;47.822;9.402;2023-11-21T08:06:22;574.77;;;26.17;;
15958;SDS011;8078;47.822;9.402;2023-11-21T08:08:51;606.67;;;29.63;;
15958;SDS011;8078;47.822;9.402;2023-11-21T08:11:16;454.47;;;24.13;;
15958;SDS011;8078;47.822;9.402;2023-11-21T08:13:42;421.20;;;25.60;;
15958;SDS011;8078;47.822;9.402;2023-11-21T08:16:08;442.10;;;26.47;;
15958;SDS011;8078;47.822;9.402;2023-11-21T08:18:33;424.90;;;21.73;;
15958;SDS011;8078;47.822;9.402;2023-11-21T08:20:59;522.67;;;28.57;;
15958;SDS011;8078;47.822;9.402;2023-11-21T08:23:25;455.10;;;22.60;;
15958;SDS011;8078;47.822;9.402;2023-11-21T08:25:51;432.70;;;25.77;;
15958;SDS011;8078;47.822;9.402;2023-11-21T08:28:18;508.23;;;25.83;;
15958;SDS011;8078;47.822;9.402;2023-11-21T08:30:44;560.47;;;36.37;;
15958;SDS011;8078;47.822;9.402;2023-11-21T08:33:09;601.20;;;37.37;;
15958;SDS011;8078;47.822;9.402;2023-11-21T08:35:36;630.77;;;34.13;;
15958;SDS011;8078;47.822;9.402;2023-11-21T08:38:03;587.37;;;38.03;;
15958;SDS011;8078;47.822;9.402;2023-11-21T08:40:29;634.37;;;43.80;;
15958;SDS011;8078;47.822;9.402;2023-11-21T08:42:54;409.90;;;21.07;;
15958;SDS011;8078;47.822;9.402;2023-11-21T08:45:21;258.50;;;17.83;;
15958;SDS011;8078;47.822;9.402;2023-11-21T08:47:47;276.53;;;18.97;;
15958;SDS011;8078;47.822;9.402;2023-11-21T08:50:13;488.17;;;32.63;;
15958;SDS011;8078;47.822;9.402;2023-11-21T08:52:39;660.97;;;48.30;;
15958;SDS011;8078;47.822;9.402;2023-11-21T08:55:06;412.97;;;27.53;;
15958;SDS011;8078;47.822;9.402;2023-11-21T08:57:37;108.57;;;12.53;;
15958;SDS011;8078;47.822;9.402;2023-11-21T09:00:04;500.07;;;30.77;;
15958;SDS011;8078;47.822;9.402;2023-11-21T09:02:35;227.60;;;16.53;;
15958;SDS011;8078;47.822;9.402;2023-11-21T09:05:02;34.60;;;7.17;;
15958;SDS011;8078;47.822;9.402;2023-11-21T09:07:28;395.23;;;24.43;;
15958;SDS011;8078;47.822;9.402;2023-11-21T09:09:54;266.93;;;21.77;;
15958;SDS011;8078;47.822;9.402;2023-11-21T09:12:20;530.10;;;31.47;;
15958;SDS011;8078;47.822;9.402;2023-11-21T09:14:46;372.23;;;23.40;;
15958;SDS011;8078;47.822;9.402;2023-11-21T09:17:12;441.37;;;25.23;;
15958;SDS011;8078;47.822;9.402;2023-11-21T09:19:39;468.47;;;30.13;;
15958;SDS011;8078;47.822;9.402;2023-11-21T09:22:05;297.40;;;22.70;;
15958;SDS011;8078;47.822;9.402;2023-11-21T09:24:31;478.17;;;30.63;;
15958;SDS011;8078;47.822;9.402;2023-11-21T09:26:57;15.60;;;6.20;;
15958;SDS011;8078;47.822;9.402;2023-11-21T09:29:24;92.53;;;12.67;;
15958;SDS011;8078;47.822;9.402;2023-11-21T09:31:51;271.20;;;19.83;;
15958;SDS011;8078;47.822;9.402;2023-11-21T09:34:16;48.80;;;9.50;;
15958;SDS011;8078;47.822;9.402;2023-11-21T09:36:45;10.50;;;6.57;;
15958;SDS011;8078;47.822;9.402;2023-11-21T09:39:11;18.80;;;7.10;;
15958;SDS011;8078;47.822;9.402;2023-11-21T09:41:52;12.13;;;6.57;;
15958;SDS011;8078;47.822;9.402;2023-11-21T09:44:34;9.97;;;6.27;;
15958;SDS011;8078;47.822;9.402;2023-11-21T09:47:02;9.00;;;5.87;;
15958;SDS011;8078;47.822;9.402;2023-11-21T09:49:28;12.40;;;6.03;;
15958;SDS011;8078;47.822;9.402;2023-11-21T09:52:00;17.20;;;6.90;;
15958;SDS011;8078;47.822;9.402;2023-11-21T09:54:28;13.60;;;8.30;;
15958;SDS011;8078;47.822;9.402;2023-11-21T09:56:56;11.23;;;6.00;;
15958;SDS011;8078;47.822;9.402;2023-11-21T09:59:25;127.57;;;14.87;;
15958;SDS011;8078;47.822;9.402;2023-11-21T10:01:56;20.43;;;6.97;;
15958;SDS011;8078;47.822;9.402;2023-11-21T10:04:23;24.03;;;8.07;;
15958;SDS011;8078;47.822;9.402;2023-11-21T10:06:49;10.63;;;5.73;;
15958;SDS011;8078;47.822;9.402;2023-11-21T10:09:16;7.83;;;5.20;;
15958;SDS011;8078;47.822;9.402;2023-11-21T10:11:44;10.30;;;5.53;;
15958;SDS011;8078;47.822;9.402;2023-11-21T10:14:11;7.03;;;5.43;;
15958;SDS011;8078;47.822;9.402;2023-11-21T10:16:38;9.10;;;5.80;;
15958;SDS011;8078;47.822;9.402;2023-11-21T10:19:05;8.43;;;5.00;;
15958;SDS011;8078;47.822;9.402;2023-11-21T10:21:34;6.17;;;4.30;;
15958;SDS011;8078;47.822;9.402;2023-11-21T10:24:00;4.80;;;3.53;;
15958;SDS011;8078;47.822;9.402;2023-11-21T10:26:26;43.07;;;7.07;;
15958;SDS011;8078;47.822;9.402;2023-11-21T10:28:59;8.17;;;4.23;;
15958;SDS011;8078;47.822;9.402;2023-11-21T10:31:28;6.93;;;4.00;;
15958;SDS011;8078;47.822;9.402;2023-11-21T10:33:56;18.87;;;4.53;;
15958;SDS011;8078;47.822;9.402;2023-11-21T10:36:43;5.13;;;3.43;;
15958;SDS011;8078;47.822;9.402;2023-11-21T10:39:09;4.63;;;3.43;;
15958;SDS011;8078;47.822;9.402;2023-11-21T10:41:39;133.30;;;9.80;;
15958;SDS011;8078;47.822;9.402;2023-11-21T10:44:04;5.17;;;3.47;;
15958;SDS011;8078;47.822;9.402;2023-11-21T10:46:32;78.30;;;6.93;;
15958;SDS011;8078;47.822;9.402;2023-11-21T10:48:58;5.67;;;3.10;;
15958;SDS011;8078;47.822;9.402;2023-11-21T10:51:25;4.27;;;2.43;;
15958;SDS011;8078;47.822;9.402;2023-11-21T10:53:53;7.23;;;3.60;;
15958;SDS011;8078;47.822;9.402;2023-11-21T10:56:19;3.83;;;3.33;;
15958;SDS011;8078;47.822;9.402;2023-11-21T10:58:48;6.10;;;3.57;;
15958;SDS011;8078;47.822;9.402;2023-11-21T11:01:17;3.90;;;3.30;;
15958;SDS011;8078;47.822;9.402;2023-11-21T11:03:44;2.80;;;2.60;;
15958;SDS011;8078;47.822;9.402;2023-11-21T11:06:10;5.87;;;3.00;;
15958;SDS011;8078;47.822;9.402;2023-11-21T11:08:37;5.20;;;2.70;;
15958;SDS011;8078;47.822;9.402;2023-11-21T11:11:04;3.77;;;2.73;;
15958;SDS011;8078;47.822;9.402;2023-11-21T11:13:30;3.23;;;2.93;;
15958;SDS011;8078;47.822;9.402;2023-11-21T11:16:00;4.63;;;2.90;;
15958;SDS011;8078;47.822;9.402;2023-11-21T11:18:27;4.67;;;2.33;;
15958;SDS011;8078;47.822;9.402;2023-11-21T11:20:54;3.83;;;2.80;;
15958;SDS011;8078;47.822;9.402;2023-11-21T11:26:35;5.67;;;3.07;;
15958;SDS011;8078;47.822;9.402;2023-11-21T11:32:25;6.10;;;3.30;;
15958;SDS011;8078;47.822;9.402;2023-11-21T11:35:07;4.80;;;3.40;;
15958;SDS011;8078;47.822;9.402;2023-11-21T11:37:41;3.80;;;2.97;;
15958;SDS011;8078;47.822;9.402;2023-11-21T11:40:08;5.10;;;3.57;;
15958;SDS011;8078;47.822;9.402;2023-11-21T11:42:36;3.97;;;3.10;;
15958;SDS011;8078;47.822;9.402;2023-11-21T11:45:02;4.63;;;3.10;;
15958;SDS011;8078;47.822;9.402;2023-11-21T11:47:43;4.97;;;3.27;;
15958;SDS011;8078;47.822;9.402;2023-11-21T11:50:09;4.87;;;3.80;;
15958;SDS011;8078;47.822;9.402;2023-11-21T11:52:43;6.90;;;2.90;;
15958;SDS011;8078;47.822;9.402;2023-11-21T11:55:11;3.87;;;2.70;;
15958;SDS011;8078;47.822;9.402;2023-11-21T11:57:45;2.30;;;2.10;;
15958;SDS011;8078;47.822;9.402;2023-11-21T12:02:59;2.97;;;1.80;;
15958;SDS011;8078;47.822;9.402;2023-11-21T12:05:33;2.23;;;1.80;;
15958;SDS011;8078;47.822;9.402;2023-11-21T12:08:10;1.80;;;1.70;;
15958;SDS011;8078;47.822;9.402;2023-11-21T12:10:37;2.63;;;2.43;;
15958;SDS011;8078;47.822;9.402;2023-11-21T12:13:06;2.33;;;1.70;;
15958;SDS011;8078;47.822;9.402;2023-11-21T12:15:33;2.17;;;1.50;;
15958;SDS011;8078;47.822;9.402;2023-11-21T12:18:00;1.50;;;1.40;;
15958;SDS011;8078;47.822;9.402;2023-11-21T12:20:26;1.93;;;1.50;;
15958;SDS011;8078;47.822;9.402;2023-11-21T12:22:56;1.87;;;1.63;;
15958;SDS011;8078;47.822;9.402;2023-11-21T12:25:25;3.30;;;1.77;;
15958;SDS011;8078;47.822;9.402;2023-11-21T12:27:54;2.43;;;1.90;;
15958;SDS011;8078;47.822;9.402;2023-11-21T12:30:21;2.47;;;1.93;;
15958;SDS011;8078;47.822;9.402;2023-11-21T12:32:49;2.83;;;2.03;;
15958;SDS011;8078;47.822;9.402;2023-11-21T12:35:16;3.43;;;2.20;;
15958;SDS011;8078;47.822;9.402;2023-11-21T12:37:44;5.33;;;2.57;;
15958;SDS011;8078;47.822;9.402;2023-11-21T12:40:12;3.33;;;2.73;;
15958;SDS011;8078;47.822;9.402;2023-11-21T12:42:46;3.03;;;2.67;;
15958;SDS011;8078;47.822;9.402;2023-11-21T12:47:46;2.40;;;2.20;;
15958;SDS011;8078;47.822;9.402;2023-11-21T12:50:15;2.40;;;2.20;;
15958;SDS011;8078;47.822;9.402;2023-11-21T12:52:47;2.93;;;2.30;;
15958;SDS011;8078;47.822;9.402;2023-11-21T12:55:21;2.40;;;2.20;;
15958;SDS011;8078;47.822;9.402;2023-11-21T12:57:48;2.83;;;2.40;;
15958;SDS011;8078;47.822;9.402;2023-11-21T13:00:16;3.17;;;2.80;;
15958;SDS011;8078;47.822;9.402;2023-11-21T13:02:53;4.00;;;2.90;;
15958;SDS011;8078;47.822;9.402;2023-11-21T13:05:26;4.10;;;2.97;;
15958;SDS011;8078;47.822;9.402;2023-11-21T13:07:57;3.60;;;2.87;;
15958;SDS011;8078;47.822;9.402;2023-11-21T13:10:25;4.07;;;2.93;;
15958;SDS011;8078;47.822;9.402;2023-11-21T13:12:55;3.10;;;2.60;;
15958;SDS011;8078;47.822;9.402;2023-11-21T13:15:23;4.73;;;2.93;;
15958;SDS011;8078;47.822;9.402;2023-11-21T13:17:49;4.63;;;2.53;;
15958;SDS011;8078;47.822;9.402;2023-11-21T13:20:16;3.43;;;2.57;;
15958;SDS011;8078;47.822;9.402;2023-11-21T13:22:48;5.07;;;2.70;;
15958;SDS011;8078;47.822;9.402;2023-11-21T13:25:14;3.00;;;1.90;;
15958;SDS011;8078;47.822;9.402;2023-11-21T13:27:42;2.07;;;1.77;;
15958;SDS011;8078;47.822;9.402;2023-11-21T13:30:10;2.10;;;1.90;;
15958;SDS011;8078;47.822;9.402;2023-11-21T13:32:40;1.83;;;1.50;;
15958;SDS011;8078;47.822;9.402;2023-11-21T13:35:09;2.03;;;1.70;;
15958;SDS011;8078;47.822;9.402;2023-11-21T13:37:45;3.00;;;1.90;;
15958;SDS011;8078;47.822;9.402;2023-11-21T13:40:13;2.10;;;1.90;;
15958;SDS011;8078;47.822;9.402;2023-11-21T13:42:44;2.00;;;1.80;;
15958;SDS011;8078;47.822;9.402;2023-11-21T13:45:10;1.97;;;1.87;;
15958;SDS011;8078;47.822;9.402;2023-11-21T13:47:37;1.67;;;1.57;;
15958;SDS011;8078;47.822;9.402;2023-11-21T13:50:05;3.07;;;2.00;;
15958;SDS011;8078;47.822;9.402;2023-11-21T13:52:39;1.63;;;1.53;;
15958;SDS011;8078;47.822;9.402;2023-11-21T13:55:04;1.60;;;1.50;;
15958;SDS011;8078;47.822;9.402;2023-11-21T13:57:36;1.50;;;1.40;;
15958;SDS011;8078;47.822;9.402;2023-11-21T14:00:03;1.60;;;1.50;;
15958;SDS011;8078;47.822;9.402;2023-11-21T14:02:35;2.40;;;1.50;;
15958;SDS011;8078;47.822;9.402;2023-11-21T14:05:07;2.23;;;1.37;;
15958;SDS011;8078;47.822;9.402;2023-11-21T14:07:34;2.10;;;1.43;;
15958;SDS011;8078;47.822;9.402;2023-11-21T14:10:04;1.37;;;1.27;;
15958;SDS011;8078;47.822;9.402;2023-11-21T14:12:33;1.20;;;1.10;;
15958;SDS011;8078;47.822;9.402;2023-11-21T14:15:01;1.90;;;1.20;;
15958;SDS011;8078;47.822;9.402;2023-11-21T14:17:30;1.40;;;1.30;;
15958;SDS011;8078;47.822;9.402;2023-11-21T14:19:55;1.23;;;1.13;;
15958;SDS011;8078;47.822;9.402;2023-11-21T14:22:21;1.50;;;1.40;;
15958;SDS011;8078;47.822;9.402;2023-11-21T14:24:47;1.27;;;1.10;;
15958;SDS011;8078;47.822;9.402;2023-11-21T14:27:15;1.20;;;1.10;;
15958;SDS011;8078;47.822;9.402;2023-11-21T14:29:41;1.27;;;1.17;;
15958;SDS011;8078;47.822;9.402;2023-11-21T14:32:09;3.13;;;1.40;;
15958;SDS011;8078;47.822;9.402;2023-11-21T14:34:35;1.20;;;1.20;;
15958;SDS011;8078;47.822;9.402;2023-11-21T14:37:01;1.60;;;1.27;;
15958;SDS011;8078;47.822;9.402;2023-11-21T14:39:30;1.30;;;1.20;;
15958;SDS011;8078;47.822;9.402;2023-11-21T14:41:57;2.30;;;1.30;;
15958;SDS011;8078;47.822;9.402;2023-11-21T14:44:24;1.27;;;1.10;;
15958;SDS011;8078;47.822;9.402;2023-11-21T14:46:52;1.20;;;1.20;;
15958;SDS011;8078;47.822;9.402;2023-11-21T14:49:20;1.50;;;1.30;;
15958;SDS011;8078;47.822;9.402;2023-11-21T14:51:47;2.00;;;1.30;;
15958;SDS011;8078;47.822;9.402;2023-11-21T14:54:28;2.50;;;1.40;;
15958;SDS011;8078;47.822;9.402;2023-11-21T14:57:11;1.77;;;1.30;;
15958;SDS011;8078;47.822;9.402;2023-11-21T14:59:45;1.47;;;1.37;;